Time;durP1;ratioP1;P1;durP2;ratioP2;P2;SDS_P1;SDS_P2;PMS_P1;PMS_P2;Temp;Humidity;BMP_temperature;BMP_pressure;BME280_temperature;BME280_humidity;BME280_pressure;Samples;Min_cycle;Max_cycle;Signal;HPM_P1;HPM_P2
2021/07/05 00:00:36;;;;;;;8.83;5.90;;;;;;;32.76;32.16;100357.81;5034693;28;20498;-47
2021/07/05 00:03:04;;;;;;;14.73;10.57;;;;;;;32.86;32.10;100354.53;5033728;28;20489;-46
2021/07/05 00:05:32;;;;;;;11.20;6.60;;;;;;;32.98;31.96;100355.66;5034851;28;20553;-47
2021/07/05 00:07:59;;;;;;;9.00;6.70;;;;;;;33.16;31.42;100351.97;5033703;28;20482;-46
2021/07/05 00:10:28;;;;;;;10.00;8.03;;;;;;;33.03;31.42;100358.03;5034627;28;20491;-47
2021/07/05 00:12:56;;;;;;;9.07;6.37;;;;;;;32.58;31.96;100355.25;5033609;28;20944;-49
2021/07/05 00:15:26;;;;;;;13.13;6.30;;;;;;;31.86;33.63;100359.19;5034569;28;20545;-45
2021/07/05 00:17:57;;;;;;;9.07;6.60;;;;;;;32.50;32.84;100360.19;5032496;28;20489;-46
2021/07/05 00:20:24;;;;;;;10.67;7.50;;;;;;;32.64;32.63;100357.59;5032272;28;20482;-46
2021/07/05 00:22:53;;;;;;;9.27;7.07;;;;;;;32.57;32.40;100358.88;5033413;28;20936;-46
2021/07/05 00:25:20;;;;;;;10.00;7.80;;;;;;;31.87;33.67;100362.69;5036614;28;20464;-44
2021/07/05 00:27:48;;;;;;;9.00;6.50;;;;;;;32.15;33.19;100367.38;5033893;28;20485;-46
2021/07/05 00:30:17;;;;;;;8.47;6.33;;;;;;;32.18;33.17;100361.88;5037918;28;20479;-47
2021/07/05 00:32:45;;;;;;;8.07;6.33;;;;;;;32.12;33.15;100362.22;5036758;28;20482;-47
2021/07/05 00:35:17;;;;;;;8.13;6.30;;;;;;;32.16;33.33;100354.91;5038291;28;20462;-47
2021/07/05 00:37:45;;;;;;;9.97;7.17;;;;;;;32.36;32.95;100360.94;5036518;28;20490;-47
2021/07/05 00:40:13;;;;;;;9.83;6.70;;;;;;;32.01;33.43;100359.28;5037893;28;20482;-47
2021/07/05 00:42:42;;;;;;;11.00;6.57;;;;;;;31.72;33.89;100359.06;5036608;28;21028;-46
2021/07/05 00:45:11;;;;;;;9.30;6.37;;;;;;;30.48;36.77;100366.97;5038207;28;20459;-47
2021/07/05 00:47:39;;;;;;;8.90;5.93;;;;;;;30.71;36.16;100375.66;5032489;28;20948;-45
2021/07/05 00:50:09;;;;;;;7.93;6.07;;;;;;;31.01;35.74;100376.88;4998508;28;20492;-47
2021/07/05 00:52:40;;;;;;;8.80;5.60;;;;;;;31.37;34.79;100363.50;4997209;28;20477;-45
2021/07/05 00:55:10;;;;;;;8.50;6.40;;;;;;;31.32;35.12;100365.53;4998361;28;20465;-47
2021/07/05 00:57:38;;;;;;;9.93;6.00;;;;;;;31.31;34.95;100358.47;4996831;28;20798;-45
2021/07/05 01:00:08;;;;;;;9.87;6.40;;;;;;;31.53;34.60;100360.88;4998272;28;20492;-45
2021/07/05 01:02:35;;;;;;;8.20;6.17;;;;;;;31.78;34.14;100353.41;4996752;28;20794;-48
2021/07/05 01:05:04;;;;;;;8.97;6.57;;;;;;;31.89;33.81;100348.34;4998346;28;20459;-44
2021/07/05 01:07:32;;;;;;;7.67;5.93;;;;;;;32.12;33.83;100346.22;4996665;28;20484;-45
2021/07/05 01:10:01;;;;;;;7.80;5.80;;;;;;;31.43;34.79;100348.13;4998017;28;20486;-45
2021/07/05 01:12:28;;;;;;;13.33;7.60;;;;;;;31.41;34.65;100347.38;4996903;28;20501;-45
2021/07/05 01:14:56;;;;;;;7.70;6.40;;;;;;;31.73;34.36;100342.13;4998234;28;20460;-46
2021/07/05 01:17:23;;;;;;;9.50;6.83;;;;;;;32.15;33.53;100342.53;4996545;28;20490;-45
2021/07/05 01:19:52;;;;;;;9.30;6.00;;;;;;;31.91;33.84;100334.94;4997843;28;20497;-45
2021/07/05 01:22:21;;;;;;;7.70;5.70;;;;;;;31.91;34.06;100341.16;4996460;28;20485;-45
2021/07/05 01:24:49;;;;;;;8.37;6.17;;;;;;;32.15;33.51;100327.38;4997785;28;20462;-46
2021/07/05 01:27:17;;;;;;;9.57;7.40;;;;;;;32.33;33.32;100327.28;4996245;28;20491;-47
2021/07/05 01:29:45;;;;;;;8.67;6.10;;;;;;;32.26;33.22;100332.13;4997539;28;20788;-47
2021/07/05 01:32:12;;;;;;;8.97;6.10;;;;;;;32.19;33.74;100328.09;4996518;28;20580;-45
2021/07/05 01:34:40;;;;;;;10.83;8.13;;;;;;;32.35;33.34;100327.19;4997546;28;20470;-47
2021/07/05 01:37:09;;;;;;;8.80;6.80;;;;;;;31.95;34.14;100322.28;4996131;28;20489;-46
2021/07/05 01:39:39;;;;;;;9.17;6.30;;;;;;;32.33;33.18;100328.16;4997653;28;20513;-45
2021/07/05 01:42:08;;;;;;;9.93;7.20;;;;;;;32.42;33.35;100318.78;4996623;28;20491;-46
2021/07/05 01:44:35;;;;;;;9.90;6.73;;;;;;;32.39;33.46;100324.25;4997315;28;20890;-47
2021/07/05 01:47:04;;;;;;;8.73;5.93;;;;;;;32.11;34.07;100315.16;4995913;28;20483;-45
2021/07/05 01:49:31;;;;;;;15.03;9.97;;;;;;;32.32;33.57;100320.22;4997313;28;20531;-47
2021/07/05 01:51:59;;;;;;;10.00;7.90;;;;;;;32.54;33.31;100313.72;4996283;28;20773;-47
2021/07/05 01:54:28;;;;;;;10.47;6.80;;;;;;;32.53;32.97;100317.28;5008054;28;20467;-47
2021/07/05 01:56:56;;;;;;;9.57;7.87;;;;;;;32.68;32.89;100313.75;5015251;28;20482;-47
2021/07/05 01:59:36;;;;;;;7.90;6.80;;;;;;;31.87;34.08;100310.25;5016901;28;20585;-45
2021/07/05 02:02:05;;;;;;;9.40;6.70;;;;;;;31.93;33.91;100312.56;5015507;28;20947;-46
2021/07/05 02:04:33;;;;;;;8.83;6.70;;;;;;;31.71;34.87;100322.66;5016670;28;20557;-45
2021/07/05 02:07:01;;;;;;;9.13;6.50;;;;;;;31.42;35.08;100322.44;5015095;28;20488;-45
2021/07/05 02:09:28;;;;;;;7.90;6.70;;;;;;;31.20;35.50;100327.06;5016599;28;20478;-46
2021/07/05 02:11:57;;;;;;;8.33;6.13;;;;;;;30.66;37.16;100321.75;5015187;28;20488;-45
2021/07/05 02:14:24;;;;;;;9.30;6.87;;;;;;;30.91;36.30;100323.22;5016681;28;20492;-50
2021/07/05 02:16:52;;;;;;;10.70;6.60;;;;;;;30.84;36.49;100326.19;5015034;28;20554;-45
2021/07/05 02:19:19;;;;;;;13.60;7.23;;;;;;;30.40;37.33;100323.91;5016295;28;20490;-46
2021/07/05 02:21:47;;;;;;;10.23;6.70;;;;;;;30.56;37.62;100324.88;5015171;28;20476;-44
2021/07/05 02:24:15;;;;;;;9.80;7.00;;;;;;;29.98;38.91;100331.19;5015814;28;20462;-45
2021/07/05 02:26:42;;;;;;;7.43;6.47;;;;;;;30.25;38.14;100328.16;5016794;28;20480;-44
2021/07/05 02:29:11;;;;;;;9.57;7.07;;;;;;;30.47;37.64;100325.34;5016304;28;20456;-44
2021/07/05 02:31:39;;;;;;;10.07;7.60;;;;;;;30.08;38.50;100328.94;5014818;28;20589;-46
2021/07/05 02:34:07;;;;;;;8.43;6.50;;;;;;;30.11;38.90;100326.16;5018745;28;20492;-47
2021/07/05 02:36:35;;;;;;;7.87;6.10;;;;;;;29.80;38.86;100324.91;5014444;28;20537;-44
2021/07/05 02:39:04;;;;;;;9.20;6.50;;;;;;;30.11;38.75;100319.06;5015984;28;20495;-46
2021/07/05 02:41:32;;;;;;;9.13;6.43;;;;;;;29.66;39.40;100329.06;5014955;28;20772;-45
2021/07/05 02:44:00;;;;;;;9.90;6.17;;;;;;;29.54;40.23;100329.59;5016264;28;20546;-44
2021/07/05 02:46:29;;;;;;;9.60;7.60;;;;;;;30.58;37.84;100327.47;5014264;28;20487;-45
2021/07/05 02:48:57;;;;;;;10.33;7.50;;;;;;;30.17;38.74;100323.22;5015383;28;20463;-46
2021/07/05 02:51:24;;;;;;;10.10;6.93;;;;;;;30.31;38.31;100327.88;5014948;28;20484;-46
2021/07/05 02:53:52;;;;;;;9.70;7.20;;;;;;;30.30;38.31;100329.66;5018399;28;20962;-46
2021/07/05 02:56:20;;;;;;;11.00;7.03;;;;;;;29.99;38.87;100319.59;5014402;28;20468;-44
2021/07/05 02:58:47;;;;;;;9.13;6.40;;;;;;;30.04;38.89;100329.06;5015514;28;20918;-48
2021/07/05 03:01:15;;;;;;;8.77;6.40;;;;;;;29.64;39.63;100320.28;5014530;28;20489;-44
2021/07/05 03:03:44;;;;;;;9.03;6.37;;;;;;;29.55;40.26;100328.66;5015667;28;20493;-46
2021/07/05 03:06:11;;;;;;;9.90;7.27;;;;;;;29.67;39.70;100324.63;5014577;28;20469;-45
2021/07/05 03:08:39;;;;;;;10.90;7.67;;;;;;;29.82;39.96;100318.56;5015577;28;20495;-48
2021/07/05 03:11:08;;;;;;;10.60;7.50;;;;;;;29.99;39.68;100322.25;5014655;28;20503;-45
2021/07/05 03:13:36;;;;;;;15.47;7.60;;;;;;;29.69;40.42;100328.94;5015474;28;20498;-46
2021/07/05 03:16:04;;;;;;;11.20;7.90;;;;;;;29.80;40.17;100332.88;5015404;28;20550;-48
2021/07/05 03:18:31;;;;;;;12.43;8.10;;;;;;;30.08;39.83;100334.25;5014926;28;20468;-44
2021/07/05 03:21:00;;;;;;;10.23;7.70;;;;;;;30.03;39.83;100332.66;5015575;28;20481;-48
2021/07/05 03:23:28;;;;;;;11.50;9.23;;;;;;;30.24;39.46;100340.59;5014324;28;20795;-46
2021/07/05 03:25:56;;;;;;;12.13;8.93;;;;;;;30.17;39.48;100333.84;5015357;28;20473;-46
2021/07/05 03:28:24;;;;;;;13.73;9.00;;;;;;;30.71;38.65;100343.72;5014036;28;20496;-46
2021/07/05 03:30:53;;;;;;;14.93;9.67;;;;;;;30.04;39.95;100345.03;5015253;28;20480;-45
2021/07/05 03:33:21;;;;;;;13.70;9.10;;;;;;;30.16;39.63;100338.31;5014142;28;20981;-45
2021/07/05 03:35:50;;;;;;;12.80;8.90;;;;;;;29.87;40.21;100337.84;5015172;28;20465;-46
2021/07/05 03:38:21;;;;;;;16.57;10.00;;;;;;;30.21;39.60;100331.91;5014207;28;20491;-45
2021/07/05 03:40:49;;;;;;;15.93;11.37;;;;;;;30.28;39.38;100328.00;5015471;28;20492;-45
2021/07/05 03:43:17;;;;;;;16.70;13.30;;;;;;;30.02;40.11;100330.94;5014001;28;20483;-44
2021/07/05 03:45:45;;;;;;;18.57;12.30;;;;;;;30.26;39.78;100330.75;5015073;28;20463;-44
2021/07/05 03:48:13;;;;;;;26.63;17.57;;;;;;;30.50;39.85;100327.81;5014134;28;20491;-45
2021/07/05 03:50:41;;;;;;;27.10;15.03;;;;;;;30.99;38.21;100327.22;5015250;28;20502;-46
2021/07/05 03:53:09;;;;;;;21.20;13.67;;;;;;;30.36;39.67;100323.19;5014118;28;20488;-45
2021/07/05 03:55:38;;;;;;;17.13;13.10;;;;;;;29.81;40.85;100324.84;5015082;28;20464;-46
2021/07/05 03:58:06;;;;;;;19.30;13.13;;;;;;;30.48;39.93;100321.72;5013817;28;20492;-48
2021/07/05 04:00:37;;;;;;;19.20;13.57;;;;;;;30.05;40.54;100328.13;5017400;28;20488;-46
2021/07/05 04:03:05;;;;;;;21.87;14.77;;;;;;;30.82;38.64;100329.88;5018076;28;20514;-46
2021/07/05 04:05:32;;;;;;;22.50;14.17;;;;;;;31.49;37.72;100331.81;5018798;28;20486;-46
2021/07/05 04:08:01;;;;;;;24.20;17.50;;;;;;;31.11;38.35;100336.38;5017620;28;20816;-46
2021/07/05 04:10:30;;;;;;;23.20;16.10;;;;;;;31.25;37.88;100338.34;5018626;28;20495;-48
2021/07/05 04:12:59;;;;;;;26.23;16.77;;;;;;;31.09;38.19;100343.59;5017523;28;20484;-48
2021/07/05 04:15:27;;;;;;;25.87;17.07;;;;;;;30.81;38.90;100328.16;5018579;28;20466;-46
2021/07/05 04:17:55;;;;;;;27.67;17.83;;;;;;;30.46;40.00;100334.25;5017493;28;20485;-45
2021/07/05 04:20:24;;;;;;;23.63;16.30;;;;;;;30.52;39.39;100339.28;5018487;28;20492;-46
2021/07/05 04:22:53;;;;;;;24.07;17.40;;;;;;;30.00;40.96;100335.47;5017153;28;20550;-45
2021/07/05 04:25:21;;;;;;;22.47;16.43;;;;;;;29.82;41.43;100345.16;5018390;28;20455;-46
2021/07/05 04:27:50;;;;;;;33.03;20.13;;;;;;;30.37;40.12;100334.69;5018907;28;20481;-46
2021/07/05 04:30:19;;;;;;;29.97;18.60;;;;;;;30.37;40.07;100326.69;5019044;28;20480;-45
2021/07/05 04:32:47;;;;;;;26.83;17.50;;;;;;;30.71;39.32;100333.94;5017056;28;20483;-45
2021/07/05 04:35:17;;;;;;;26.87;18.10;;;;;;;30.94;39.03;100339.03;5020977;28;20467;-45
2021/07/05 04:37:45;;;;;;;26.63;18.20;;;;;;;30.61;39.41;100339.75;5016847;28;20484;-47
2021/07/05 04:40:15;;;;;;;25.80;17.83;;;;;;;31.03;38.76;100338.59;5018363;28;20493;-45
2021/07/05 04:42:44;;;;;;;28.77;18.30;;;;;;;30.50;39.45;100333.16;5016956;28;20571;-45
2021/07/05 04:45:13;;;;;;;29.30;20.87;;;;;;;30.18;40.55;100330.25;5018461;28;20787;-46
2021/07/05 04:47:43;;;;;;;28.70;19.53;;;;;;;29.60;41.48;100346.16;5016674;28;20483;-46
2021/07/05 04:50:13;;;;;;;30.50;20.47;;;;;;;29.92;40.79;100338.50;5020483;28;20932;-47
2021/07/05 04:52:41;;;;;;;27.13;19.97;;;;;;;29.62;41.45;100348.72;5016561;28;20945;-47
2021/07/05 04:55:11;;;;;;;27.37;19.57;;;;;;;30.34;39.82;100337.50;5017986;28;20466;-45
2021/07/05 04:57:40;;;;;;;31.53;21.17;;;;;;;30.22;40.13;100336.28;5016425;28;20491;-45
2021/07/05 05:00:11;;;;;;;30.23;20.60;;;;;;;30.75;39.10;100334.63;5017614;28;20529;-46
2021/07/05 05:02:52;;;;;;;29.73;21.40;;;;;;;30.05;40.41;100333.44;5016377;28;20485;-48
2021/07/05 05:05:20;;;;;;;29.83;20.40;;;;;;;29.91;40.70;100333.25;5017989;28;20486;-45
2021/07/05 05:07:47;;;;;;;32.57;21.00;;;;;;;30.02;40.86;100330.94;5016386;28;20485;-46
2021/07/05 05:10:17;;;;;;;31.30;20.97;;;;;;;29.94;40.58;100324.25;5017308;28;20482;-48
2021/07/05 05:12:44;;;;;;;28.47;20.23;;;;;;;30.26;39.62;100324.56;5016319;28;20484;-46
2021/07/05 05:15:15;;;;;;;30.90;19.33;;;;;;;30.39;39.28;100319.53;5017628;28;20468;-46
2021/07/05 05:17:42;;;;;;;30.60;20.67;;;;;;;30.47;39.55;100329.78;5016098;28;20799;-47
2021/07/05 05:20:12;;;;;;;27.77;19.37;;;;;;;29.83;40.59;100335.41;5017631;28;20480;-47
2021/07/05 05:22:40;;;;;;;30.43;20.83;;;;;;;29.87;41.04;100331.66;5016038;28;20495;-45
2021/07/05 05:25:10;;;;;;;30.10;19.77;;;;;;;30.30;39.73;100332.31;5017422;28;20465;-45
2021/07/05 05:27:39;;;;;;;28.67;18.93;;;;;;;30.17;39.99;100325.88;5015776;28;20491;-46
2021/07/05 05:30:08;;;;;;;26.57;19.47;;;;;;;30.83;38.62;100332.47;5017352;28;20483;-45
2021/07/05 05:32:43;;;;;;;27.53;19.80;;;;;;;30.70;39.33;100323.34;5015833;28;20504;-44
2021/07/05 05:35:16;;;;;;;29.70;17.40;;;;;;;30.60;38.94;100322.91;5017456;28;20763;-44
2021/07/05 05:37:43;;;;;;;23.33;17.23;;;;;;;30.80;38.56;100327.28;5015791;28;20491;-46
2021/07/05 05:40:12;;;;;;;31.33;19.20;;;;;;;31.12;37.91;100335.44;5016991;28;20480;-45
2021/07/05 05:42:39;;;;;;;24.70;17.50;;;;;;;30.73;37.82;100331.19;5015934;28;20484;-45
2021/07/05 05:45:09;;;;;;;24.80;16.80;;;;;;;30.69;38.66;100329.63;5017189;28;20461;-46
2021/07/05 05:47:37;;;;;;;27.57;18.33;;;;;;;30.60;38.24;100330.91;5015529;28;20495;-46
2021/07/05 05:50:06;;;;;;;22.70;16.07;;;;;;;30.91;37.50;100340.03;5017043;28;20486;-45
2021/07/05 05:52:35;;;;;;;25.63;18.20;;;;;;;30.59;38.15;100339.81;5015578;28;20516;-45
2021/07/05 05:55:04;;;;;;;31.27;17.07;;;;;;;30.48;38.77;100336.81;5017121;28;20468;-45
2021/07/05 05:57:32;;;;;;;27.17;18.70;;;;;;;30.84;38.30;100354.59;5015443;28;20484;-45
2021/07/05 06:00:02;;;;;;;25.40;18.50;;;;;;;30.51;39.08;100340.22;5016710;28;20488;-45
2021/07/05 06:02:29;;;;;;;23.70;18.23;;;;;;;31.19;38.08;100340.44;5015433;28;20972;-50
2021/07/05 06:04:57;;;;;;;24.30;17.63;;;;;;;31.04;38.25;100340.28;5016616;28;20468;-46
2021/07/05 06:07:25;;;;;;;25.17;17.10;;;;;;;30.83;38.29;100335.13;5015164;28;20790;-49
2021/07/05 06:09:53;;;;;;;24.10;17.83;;;;;;;30.73;38.48;100336.50;5016701;28;20788;-44
2021/07/05 06:12:21;;;;;;;28.80;16.93;;;;;;;30.59;39.23;100332.72;5015360;28;20490;-47
2021/07/05 06:14:49;;;;;;;24.17;16.47;;;;;;;30.38;39.19;100341.72;5016512;28;20458;-46
2021/07/05 06:17:16;;;;;;;23.20;16.80;;;;;;;29.96;40.07;100347.19;5014953;28;20488;-44
2021/07/05 06:19:44;;;;;;;25.47;16.53;;;;;;;30.57;38.20;100337.25;5016355;28;20484;-49
2021/07/05 06:22:18;;;;;;;26.10;16.70;;;;;;;30.71;38.27;100339.25;5014537;28;20480;-44
2021/07/05 06:24:47;;;;;;;24.27;17.10;;;;;;;30.87;38.09;100337.63;5016509;28;20461;-45
2021/07/05 06:27:16;;;;;;;26.13;16.00;;;;;;;30.42;38.88;100343.31;5014791;28;20935;-46
2021/07/05 06:29:44;;;;;;;26.40;15.80;;;;;;;29.64;40.12;100346.88;5016021;28;20484;-47
2021/07/05 06:32:12;;;;;;;23.27;16.70;;;;;;;30.10;38.88;100343.94;5015025;28;20487;-45
2021/07/05 06:34:40;;;;;;;24.17;14.80;;;;;;;29.94;39.93;100348.19;5016380;28;20488;-45
2021/07/05 06:37:08;;;;;;;24.00;17.27;;;;;;;30.35;39.15;100347.22;5017239;28;20480;-50
2021/07/05 06:39:36;;;;;;;23.80;16.77;;;;;;;30.74;38.13;100343.56;5016287;28;20482;-46
2021/07/05 06:42:04;;;;;;;24.30;16.90;;;;;;;29.81;39.81;100347.88;5014793;28;20492;-45
2021/07/05 06:44:33;;;;;;;28.97;18.17;;;;;;;30.67;38.70;100340.31;5016494;28;20468;-45
2021/07/05 06:47:01;;;;;;;25.23;17.10;;;;;;;30.10;39.50;100345.72;5032027;28;20518;-45
2021/07/05 06:49:29;;;;;;;25.13;17.73;;;;;;;29.85;40.74;100353.00;5032616;28;20486;-45
2021/07/05 06:51:57;;;;;;;25.73;18.40;;;;;;;30.24;39.07;100350.38;5034445;28;20586;-46
2021/07/05 06:54:25;;;;;;;22.80;16.80;;;;;;;30.31;39.02;100344.69;5035643;28;20943;-49
2021/07/05 06:56:52;;;;;;;28.90;20.23;;;;;;;30.23;39.80;100344.19;5033929;28;20476;-45
2021/07/05 06:59:20;;;;;;;22.67;15.27;;;;;;;29.61;40.01;100339.00;5035364;28;20941;-47
2021/07/05 07:01:49;;;;;;;19.57;12.90;;;;;;;29.68;39.09;100345.78;5034461;28;20563;-46
2021/07/05 07:04:16;;;;;;;20.50;15.00;;;;;;;29.69;39.98;100344.88;5035742;28;20453;-49
2021/07/05 07:06:48;;;;;;;22.20;15.53;;;;;;;29.30;40.06;100337.69;5033841;28;21144;-47
2021/07/05 07:09:16;;;;;;;19.67;14.67;;;;;;;30.04;39.33;100330.88;5035488;28;20898;-46
2021/07/05 07:11:44;;;;;;;22.10;15.33;;;;;;;30.49;37.76;100330.59;5033995;28;20772;-44
2021/07/05 07:14:12;;;;;;;24.80;15.00;;;;;;;30.79;37.57;100338.88;5035655;28;20459;-46
2021/07/05 07:16:43;;;;;;;20.63;14.20;;;;;;;30.25;38.28;100342.31;5033947;28;20499;-44
2021/07/05 07:19:18;;;;;;;20.50;12.97;;;;;;;30.33;38.57;100339.28;5035465;28;20844;-46
2021/07/05 07:21:50;;;;;;;22.27;15.30;;;;;;;30.34;38.68;100334.84;5034011;28;20495;-49
2021/07/05 07:24:19;;;;;;;20.37;12.33;;;;;;;30.35;38.09;100332.09;5035183;28;20463;-45
2021/07/05 07:26:47;;;;;;;16.23;11.43;;;;;;;30.01;38.59;100336.34;5033811;28;20783;-47
2021/07/05 07:29:15;;;;;;;25.83;13.10;;;;;;;29.71;38.28;100339.47;5035281;28;20485;-46
2021/07/05 07:31:43;;;;;;;15.30;11.93;;;;;;;30.14;37.71;100331.34;5034187;28;20569;-46
2021/07/05 07:34:12;;;;;;;14.80;10.10;;;;;;;30.10;36.89;100327.97;5037201;28;20463;-45
2021/07/05 07:36:40;;;;;;;17.83;11.83;;;;;;;29.96;36.90;100320.59;5037595;28;20563;-45
2021/07/05 07:39:10;;;;;;;18.80;12.70;;;;;;;30.52;36.27;100318.00;5039318;28;20455;-47
2021/07/05 07:41:38;;;;;;;15.40;12.00;;;;;;;30.76;35.85;100312.38;5038083;28;20859;-44
2021/07/05 07:44:06;;;;;;;18.30;13.07;;;;;;;30.71;36.28;100317.97;5039297;28;20463;-45
2021/07/05 07:46:34;;;;;;;18.60;11.67;;;;;;;30.27;36.15;100320.97;5037653;28;20479;-45
2021/07/05 07:49:02;;;;;;;19.40;12.40;;;;;;;30.68;35.96;100325.22;5038856;28;20823;-45
2021/07/05 07:51:31;;;;;;;17.47;12.20;;;;;;;30.40;36.05;100323.91;5037631;28;20842;-46
2021/07/05 07:53:59;;;;;;;15.53;11.00;;;;;;;29.82;37.42;100339.00;5039155;28;20457;-46
2021/07/05 07:56:29;;;;;;;15.90;12.27;;;;;;;30.45;36.76;100325.41;5037318;28;20787;-46
2021/07/05 07:58:59;;;;;;;16.00;11.13;;;;;;;30.03;36.85;100327.34;5038687;28;20463;-45
2021/07/05 08:01:27;;;;;;;20.07;11.83;;;;;;;29.96;37.34;100338.34;5037493;28;20463;-46
2021/07/05 08:03:55;;;;;;;16.30;11.60;;;;;;;30.10;37.37;100332.41;5038792;28;20465;-44
2021/07/05 08:06:23;;;;;;;18.90;11.60;;;;;;;29.69;37.87;100334.25;5037432;28;21953;-48
2021/07/05 08:08:53;;;;;;;16.07;10.50;;;;;;;29.81;37.69;100327.50;5038716;28;20457;-48
2021/07/05 08:11:21;;;;;;;17.73;11.27;;;;;;;30.25;36.71;100326.34;5037544;28;20483;-46
2021/07/05 08:13:49;;;;;;;18.50;11.73;;;;;;;30.48;36.46;100327.06;5038607;28;20466;-45
2021/07/05 08:16:17;;;;;;;13.90;10.00;;;;;;;30.09;36.68;100318.25;5037169;28;20463;-47
2021/07/05 08:18:44;;;;;;;13.03;9.37;;;;;;;30.31;36.13;100307.44;5038508;28;20735;-47
2021/07/05 08:21:12;;;;;;;17.13;11.00;;;;;;;30.52;35.62;100307.34;5037401;28;20796;-47
2021/07/05 08:23:40;;;;;;;15.30;9.93;;;;;;;31.09;35.33;100305.44;5038251;28;20546;-48
2021/07/05 08:26:09;;;;;;;13.63;9.50;;;;;;;30.21;36.22;100298.19;5037003;28;20461;-44
2021/07/05 08:28:37;;;;;;;14.87;8.97;;;;;;;30.15;36.39;100306.47;5038015;28;20489;-44
2021/07/05 08:31:07;;;;;;;15.20;8.40;;;;;;;30.17;35.41;100304.59;5037122;28;20786;-47
2021/07/05 08:33:35;;;;;;;14.87;10.00;;;;;;;30.09;35.69;100306.75;5038322;28;20491;-45
2021/07/05 08:36:03;;;;;;;12.63;9.40;;;;;;;30.65;35.17;100320.03;5038042;28;20460;-45
2021/07/05 08:38:31;;;;;;;14.50;9.80;;;;;;;30.41;35.35;100321.16;5037081;28;20464;-45
2021/07/05 08:41:01;;;;;;;13.83;9.23;;;;;;;30.83;34.46;100313.84;5021755;28;20484;-47
2021/07/05 08:43:30;;;;;;;15.10;8.67;;;;;;;30.83;34.47;100320.94;5017253;28;20490;-45
2021/07/05 08:46:02;;;;;;;15.90;10.10;;;;;;;30.89;33.82;100322.41;5019783;28;20455;-45
2021/07/05 08:48:33;;;;;;;13.40;9.23;;;;;;;31.07;34.51;100334.81;5017858;28;20473;-46
2021/07/05 08:51:01;;;;;;;11.00;9.00;;;;;;;31.49;33.20;100326.50;5018060;28;20795;-46
2021/07/05 08:53:29;;;;;;;12.50;9.70;;;;;;;31.11;34.15;100325.72;4997606;28;20477;-47
2021/07/05 08:55:56;;;;;;;23.27;11.13;;;;;;;32.06;32.57;100325.22;4998003;28;20464;-44
2021/07/05 08:58:25;;;;;;;13.00;9.10;;;;;;;32.15;32.28;100326.53;5016168;28;20489;-47
2021/07/05 09:00:54;;;;;;;14.63;10.83;;;;;;;31.13;34.48;100333.63;5017720;28;20795;-46
2021/07/05 09:03:23;;;;;;;14.33;10.63;;;;;;;30.63;35.63;100337.88;5016467;28;20495;-44
2021/07/05 09:06:07;;;;;;;17.90;12.37;;;;;;;30.95;34.93;100343.41;5017643;28;20467;-47
2021/07/05 09:08:38;;;;;;;16.60;11.97;;;;;;;30.48;36.26;100340.34;4997726;28;20472;-48
2021/07/05 09:11:07;;;;;;;22.53;12.47;;;;;;;30.91;34.98;100341.88;4997448;28;20482;-45
2021/07/05 09:13:46;;;;;;;19.30;11.47;;;;;;;30.72;34.01;100334.81;5017681;28;20486;-46
2021/07/05 09:16:28;;;;;;;14.67;8.13;;;;;;;29.85;35.92;100334.41;5016203;28;20853;-46
2021/07/05 09:18:56;;;;;;;16.33;11.50;;;;;;;30.98;34.18;100337.94;5017472;28;20458;-46
2021/07/05 09:21:25;;;;;;;18.30;11.73;;;;;;;31.19;33.53;100337.78;5016618;28;20478;-45
2021/07/05 09:23:58;;;;;;;12.90;9.80;;;;;;;31.84;32.66;100331.75;5017338;28;20483;-45
2021/07/05 09:26:28;;;;;;;12.47;8.83;;;;;;;31.94;33.14;100318.78;5015731;28;20482;-45
2021/07/05 09:28:57;;;;;;;16.33;10.43;;;;;;;30.77;33.54;100329.25;5017073;28;20968;-44
2021/07/05 09:31:32;;;;;;;13.60;10.20;;;;;;;31.33;32.56;100334.44;5016019;28;20750;-46
2021/07/05 09:34:00;;;;;;;17.40;11.10;;;;;;;31.16;32.82;100343.28;5017573;28;20456;-46
2021/07/05 09:36:28;;;;;;;15.57;10.13;;;;;;;31.43;32.50;100335.69;5015771;28;20926;-46
2021/07/05 09:38:55;;;;;;;17.63;10.63;;;;;;;30.81;33.52;100329.00;5017049;28;20470;-45
2021/07/05 09:41:26;;;;;;;14.67;10.27;;;;;;;31.49;33.14;100330.03;5015898;28;22074;-45
2021/07/05 09:43:56;;;;;;;14.53;10.80;;;;;;;31.50;32.63;100336.19;5017070;28;20776;-46
2021/07/05 09:46:36;;;;;;;14.30;11.47;;;;;;;32.25;31.55;100337.53;5015884;28;20815;-45
2021/07/05 09:49:21;;;;;;;14.67;10.70;;;;;;;32.50;31.14;100334.34;5016988;28;20467;-46
2021/07/05 09:52:05;;;;;;;14.50;11.70;;;;;;;33.02;30.19;100334.09;5015609;28;20492;-45
2021/07/05 09:54:34;;;;;;;16.20;10.80;;;;;;;33.30;30.40;100330.59;5016976;28;20455;-45
2021/07/05 09:57:03;;;;;;;12.63;9.80;;;;;;;31.66;33.38;100331.78;5015340;28;20489;-45
2021/07/05 09:59:31;;;;;;;16.40;12.67;;;;;;;32.52;31.14;100334.25;5016723;28;21392;-47
2021/07/05 10:02:01;;;;;;;15.70;11.40;;;;;;;32.91;31.04;100335.53;5015563;28;20985;-47
2021/07/05 10:04:32;;;;;;;16.07;11.47;;;;;;;31.89;31.98;100327.00;5016588;28;20542;-45
2021/07/05 10:07:01;;;;;;;15.10;12.20;;;;;;;32.64;30.98;100328.22;5015051;28;20926;-47
2021/07/05 10:09:34;;;;;;;16.40;12.10;;;;;;;32.76;31.38;100336.47;5016744;28;20511;-47
2021/07/05 10:12:22;;;;;;;14.23;11.20;;;;;;;32.30;31.98;100338.16;5015907;28;20488;-46
2021/07/05 10:14:58;;;;;;;16.47;10.73;;;;;;;32.80;30.90;100332.69;5016638;28;20774;-47
2021/07/05 10:17:28;;;;;;;13.10;8.90;;;;;;;33.00;30.78;100336.84;5014455;28;20496;-47
2021/07/05 10:19:56;;;;;;;15.53;10.37;;;;;;;33.30;31.31;100338.63;5016613;28;20503;-50
2021/07/05 10:22:24;;;;;;;15.17;10.20;;;;;;;34.19;29.64;100339.38;5014980;28;20488;-50
2021/07/05 10:24:52;;;;;;;14.20;10.87;;;;;;;34.23;29.27;100339.22;5016437;28;20485;-46
2021/07/05 10:27:20;;;;;;;14.60;10.63;;;;;;;33.52;30.10;100340.03;5014701;28;20930;-47
2021/07/05 10:29:48;;;;;;;18.50;10.10;;;;;;;33.05;31.08;100341.94;5016007;28;20484;-45
2021/07/05 10:32:17;;;;;;;12.43;8.40;;;;;;;32.13;32.03;100339.94;5015160;28;20818;-49
2021/07/05 10:34:51;;;;;;;15.67;9.70;;;;;;;32.22;31.53;100348.38;5018909;28;20457;-46
2021/07/05 10:37:21;;;;;;;11.53;8.07;;;;;;;32.04;31.28;100345.81;5014701;28;20511;-44
2021/07/05 10:39:50;;;;;;;14.50;10.13;;;;;;;32.79;30.36;100349.63;5016178;28;20518;-46
2021/07/05 10:42:31;;;;;;;14.63;9.93;;;;;;;31.85;31.70;100352.16;5014849;28;20482;-45
2021/07/05 10:44:59;;;;;;;13.73;9.80;;;;;;;32.28;30.36;100356.03;5016171;28;20488;-45
2021/07/05 10:47:43;;;;;;;12.80;8.50;;;;;;;31.95;31.36;100356.97;5014430;28;20774;-46
2021/07/05 10:50:38;;;;;;;12.03;8.80;;;;;;;32.38;30.27;100357.25;5017999;28;20523;-48
2021/07/05 10:53:06;;;;;;;13.70;10.33;;;;;;;31.59;31.38;100357.06;5014390;28;20485;-47
2021/07/05 10:55:36;;;;;;;13.87;10.20;;;;;;;31.76;31.69;100353.47;5015679;28;20461;-45
2021/07/05 10:58:06;;;;;;;12.67;9.60;;;;;;;32.84;30.66;100350.22;5014545;28;20491;-45
2021/07/05 11:00:44;;;;;;;12.83;10.70;;;;;;;32.65;30.51;100347.78;5015679;28;20571;-49
2021/07/05 11:03:12;;;;;;;12.37;9.20;;;;;;;32.17;31.03;100353.97;5014504;28;20477;-45
2021/07/05 11:05:44;;;;;;;17.87;10.60;;;;;;;32.22;31.53;100351.91;5015556;28;20953;-45
2021/07/05 11:08:25;;;;;;;18.73;11.60;;;;;;;32.12;31.35;100348.91;5014223;28;20536;-46
2021/07/05 11:11:24;;;;;;;13.30;10.50;;;;;;;32.76;31.12;100341.81;5015716;28;20484;-46
2021/07/05 11:14:16;;;;;;;15.43;9.67;;;;;;;32.74;30.51;100341.88;4994105;28;20450;-49
2021/07/05 11:16:55;;;;;;;12.27;9.30;;;;;;;32.96;30.40;100344.19;5013073;28;20484;-45
2021/07/05 11:19:38;;;;;;;13.17;8.53;;;;;;;32.47;29.90;100347.88;5015594;28;20495;-44
2021/07/05 11:22:14;;;;;;;11.10;7.53;;;;;;;31.99;30.63;100337.19;5014532;28;20491;-45
2021/07/05 11:24:50;;;;;;;13.30;8.97;;;;;;;32.04;30.99;100345.81;5015711;28;20491;-44